Terminal Aerodrome Forecast
Issued by NWS

Home | Current Version | Previous Version | Text Only | Print | Product List | Glossary On
Versions: 1 2 3 4 5 6 7 8 9 10 11 12 13 14 15 16 17
046
FTUS43 KTOP 231742 CCA
TAFMHK
TAF COR
KMHK 231742Z 2318/2418 20012KT P6SM FEW250
     FM240500 17009KT P6SM FEW250 WS015/20040KT
     FM241200 23008KT P6SM SCT150
     FM241700 36008KT P6SM SCT100=

USA.gov is the U.S. government's official web portal to all federal, state and local government web resources and services.